SBRPSBUR

Guest
Details From SBRP - LEITE LOPES
To SBUR - Uberaba
Flight Number -
Tags generated
Created
Modified
Stats Distance 83 nm / 154 km
Max Altitude 0 ft / 0 m
Waypoints 2
Social Downloads 2
Likes 0
Share VATSIM

Download

Looking for another format? Having issues loading an existing format? Contact us
Advertisement - Login to hide

Notes

Basic altitude profile: - Ascent Rate: 1500ft/min - Ascent Speed: 120kts - Cruise Altitude: 9500ft - Cruise Speed: 140kts - Descent Rate: 1500ft/min - Descent Speed: 140kts Options: - Use NATs: no - Use PACOTS: no - Use low airways: no - Use high airways: no

Route

SBRP SBUR

ID Type Via Altitude Latitude Longitude Leg Dist Tot Dist Heading (true) Name
O SBRP APT - 0 ft / 0 m -21.13417˚ -47.77419˚ - 0 nm - LEITE LOPES
O SBUR APT - 0 ft / 0 m -19.76500˚ -47.96478˚ 82 nm 82 nm 353° / 353° Uberaba

Altitude Profile

Advertisement - Login to hide

SBRP

Details ICAO SBRP (RAO)
Name LEITE LOPES
Region Brazil
Timezone America/Sao_Paulo (UTC-3.0)
Stats Elevation 1,802 ft / 549 m (AMSL)
Location -21.134166° -47.774189°
Runways 1
Magnetic Variation 21.257° W

METAR

SBRP 232100Z 16004KT CAVOK 23/06 Q1020

Decode

TAF

TAF SBRP 231616Z 2318/2418 30005KT CAVOK TX27/2318Z TN10/2409Z BECMG 2319/2321 24005KT BECMG 2323/2401 10002KT BECMG 2412/2414 14005KT RMK PGQ

Decode

Departure Runways

ID Width Length Bearing (true) Bearing (mag) Surface Threshold Offset Overrun Length
18 115 ft / 35 m 6,918 ft / 2,109 m 163.40° 184.66° Asphalt 657 ft / 200 m 0 ft / 0 m
36 115 ft / 35 m 6,918 ft / 2,109 m 343.40° 4.66° Asphalt 328 ft / 100 m 0 ft / 0 m

SBUR

Details ICAO SBUR (UBA)
Name Uberaba
Region Brazil
Timezone America/Sao_Paulo (UTC-3.0)
Stats Elevation 2,655 ft / 809 m (AMSL)
Location -19.765000° -47.964777°
Runways 1
Magnetic Variation 21.337° W

METAR

Not found

TAF

TAF SBUR 231616Z 2318/2406 30005KT CAVOK TX26/2319Z TN14/2405Z BECMG 2318/2320 24005KT BECMG 2320/2324 18005KT RMK PGQ

Decode

Destination Runways

ID Width Length Bearing (true) Bearing (mag) Surface Threshold Offset Overrun Length
17 148 ft / 45 m 5,791 ft / 1,765 m 149.07° 170.41° Asphalt 0 ft / 0 m 0 ft / 0 m
35 148 ft / 45 m 5,791 ft / 1,765 m 329.07° 350.41° Asphalt 0 ft / 0 m 0 ft / 0 m